createdAt,value
2022-09-17T00:01:02.294Z,76205.13
2022-09-17T00:03:29.282Z,76219.03
2022-09-17T00:06:14.116Z,76209.09
2022-09-17T00:08:42.028Z,76201.16
2022-09-17T00:11:17.980Z,76209.09
2022-09-17T00:13:45.071Z,76207.13
2022-09-17T00:16:12.317Z,76209.09
2022-09-17T00:18:41.788Z,76207.13
2022-09-17T00:21:17.111Z,76201.16
2022-09-17T00:23:44.172Z,76217.06
2022-09-17T00:26:11.524Z,76211.09
2022-09-17T00:28:38.504Z,76205.13
2022-09-17T00:31:09.378Z,76213.09
2022-09-17T00:33:36.734Z,76207.13
2022-09-17T00:36:05.131Z,76209.09
2022-09-17T00:38:32.168Z,76205.13
2022-09-17T00:40:58.607Z,76201.16
2022-09-17T00:43:42.328Z,76209.09
2022-09-17T00:46:37.785Z,76209.09
2022-09-17T00:49:14.297Z,76201.16
2022-09-17T00:51:49.727Z,76209.09
2022-09-17T00:54:16.512Z,76205.13
2022-09-17T00:56:43.960Z,76215.06
2022-09-17T00:59:10.469Z,76207.13
2022-09-17T01:01:37.228Z,76211.09
2022-09-17T01:04:04.155Z,76197.19
2022-09-17T01:06:42.020Z,76207.13
2022-09-17T01:09:11.437Z,76193.22
2022-09-17T01:11:47.664Z,76205.13
2022-09-17T01:14:44.036Z,76213.09
2022-09-17T01:17:18.562Z,76197.19
2022-09-17T01:20:13.096Z,76201.16
2022-09-17T01:23:13.042Z,76189.25
2022-09-17T01:25:42.618Z,76217.06
2022-09-17T01:28:15.281Z,76207.13
2022-09-17T01:31:21.869Z,76195.19
2022-09-17T01:34:01.518Z,76187.25
2022-09-17T01:37:11.174Z,76187.25
2022-09-17T01:39:58.037Z,76211.09
2022-09-17T01:42:33.403Z,76181.28
2022-09-17T01:45:06.249Z,76179.31
2022-09-17T01:47:47.188Z,76185.25
2022-09-17T01:50:20.973Z,76195.19
2022-09-17T01:52:50.101Z,76195.19
2022-09-17T01:55:18.759Z,76191.22
2022-09-17T01:57:52.961Z,76185.25
2022-09-17T02:00:20.268Z,76195.19
2022-09-17T02:03:02.843Z,76193.22
2022-09-17T02:05:44.467Z,76207.13
2022-09-17T02:08:21.972Z,76193.22
2022-09-17T02:10:54.371Z,76197.19
2022-09-17T02:13:27.800Z,76187.25
2022-09-17T02:16:00.341Z,76191.22
2022-09-17T02:18:51.498Z,76201.16
2022-09-17T02:21:32.692Z,76191.22
2022-09-17T02:24:19.894Z,76203.16
2022-09-17T02:26:54.295Z,76185.25
2022-09-17T02:29:34.057Z,76203.16
2022-09-17T02:32:00.888Z,76193.22
2022-09-17T02:34:29.428Z,76187.25
2022-09-17T02:36:58.726Z,76187.25
2022-09-17T02:39:25.830Z,76183.28
2022-09-17T02:42:23.308Z,76175.34
2022-09-17T02:44:50.731Z,76181.28
2022-09-17T02:47:30.242Z,76167.38
2022-09-17T02:50:27.970Z,76185.25
2022-09-17T02:53:08.879Z,76181.28
2022-09-17T02:55:39.092Z,76183.28
2022-09-17T02:58:44.853Z,76187.25
2022-09-17T03:01:23.455Z,76163.41
2022-09-17T03:03:53.110Z,76171.34
2022-09-17T03:06:19.828Z,76173.34
2022-09-17T03:08:47.612Z,76165.41
2022-09-17T03:11:15.048Z,76165.41
2022-09-17T03:13:41.843Z,76155.47
2022-09-17T03:16:08.656Z,76165.41
2022-09-17T03:18:35.452Z,76159.44
2022-09-17T03:21:02.056Z,76167.38
2022-09-17T03:23:28.543Z,76171.34
2022-09-17T03:25:55.358Z,76155.47
2022-09-17T03:28:22.211Z,76155.47
2022-09-17T03:30:48.728Z,76151.50
2022-09-17T03:33:15.238Z,76163.41
2022-09-17T03:35:45.089Z,76149.50
2022-09-17T03:38:12.802Z,76161.44
2022-09-17T03:40:40.445Z,76153.47
2022-09-17T03:43:07.447Z,76139.56
2022-09-17T03:45:34.103Z,76149.50
2022-09-17T03:48:00.677Z,76159.44
2022-09-17T03:50:27.191Z,76163.41
2022-09-17T03:52:53.859Z,76163.41
2022-09-17T03:55:20.511Z,76153.47
2022-09-17T03:57:47.030Z,76171.34
2022-09-17T04:00:17.364Z,76157.44
2022-09-17T04:02:44.521Z,76155.47
2022-09-17T04:05:11.142Z,76157.44
2022-09-17T04:07:40.169Z,76155.47
2022-09-17T04:10:07.403Z,76159.44
2022-09-17T04:12:33.872Z,76155.47
2022-09-17T04:15:00.329Z,76155.47
2022-09-17T04:17:27.564Z,76165.41
2022-09-17T04:19:54.048Z,76161.44
2022-09-17T04:22:20.971Z,76179.31
2022-09-17T04:24:47.467Z,76177.31
2022-09-17T04:27:13.964Z,76163.41
2022-09-17T04:29:40.471Z,76165.41
2022-09-17T04:32:07.453Z,76157.44
2022-09-17T04:34:34.402Z,76163.41
2022-09-17T04:37:00.983Z,76163.41
2022-09-17T04:39:27.432Z,76155.47
2022-09-17T04:41:54.804Z,76149.50
2022-09-17T04:44:21.260Z,76165.41
2022-09-17T04:46:47.767Z,76163.41
2022-09-17T04:49:14.287Z,76173.34
2022-09-17T04:51:40.886Z,76163.41
2022-09-17T04:54:07.353Z,76173.34
2022-09-17T04:56:34.322Z,76179.31
2022-09-17T04:59:00.832Z,76173.34
2022-09-17T05:01:27.338Z,76167.38
2022-09-17T05:03:53.928Z,76181.28
2022-09-17T05:06:20.448Z,76177.31
2022-09-17T05:08:52.833Z,76187.25
2022-09-17T05:11:19.433Z,76187.25
2022-09-17T05:13:45.880Z,76187.25
2022-09-17T05:16:12.447Z,76191.22
2022-09-17T05:18:38.969Z,76193.22
2022-09-17T05:21:05.659Z,76193.22
2022-09-17T05:23:32.115Z,76197.19
2022-09-17T05:26:03.249Z,76193.22
2022-09-17T05:28:29.926Z,76183.28
2022-09-17T05:30:59.987Z,76185.25
2022-09-17T05:33:26.796Z,76187.25
2022-09-17T05:35:53.520Z,76189.25
2022-09-17T05:38:20.410Z,76189.25
2022-09-17T05:40:49.061Z,76187.25
2022-09-17T05:43:15.791Z,76191.22
2022-09-17T05:45:42.272Z,76199.19
2022-09-17T05:48:12.591Z,76189.25
2022-09-17T05:50:39.336Z,76185.25
2022-09-17T05:53:08.051Z,76183.28
2022-09-17T05:55:35.279Z,76173.34
2022-09-17T05:58:09.655Z,76161.44
2022-09-17T06:00:36.128Z,76157.44
2022-09-17T06:03:03.135Z,76151.50
2022-09-17T06:05:29.693Z,76153.47
2022-09-17T06:07:56.188Z,76149.50
2022-09-17T06:10:22.644Z,76143.53
2022-09-17T06:12:49.112Z,76139.56
2022-09-17T06:15:15.672Z,76149.50
2022-09-17T06:17:43.424Z,76125.66
2022-09-17T06:20:10.247Z,76109.75
2022-09-17T06:22:36.755Z,76103.81
2022-09-17T06:25:04.158Z,76117.72
2022-09-17T06:27:32.602Z,76123.66
2022-09-17T06:30:00.006Z,76151.50
2022-09-17T06:32:27.776Z,76163.41
2022-09-17T06:34:55.867Z,76185.25
2022-09-17T06:37:31.677Z,76173.34
2022-09-17T06:39:59.384Z,76177.31
2022-09-17T06:42:26.790Z,76171.34
2022-09-17T06:44:53.288Z,76191.22
2022-09-17T06:47:20.909Z,76183.28
2022-09-17T06:49:47.359Z,76191.22
2022-09-17T06:52:13.852Z,76183.28
2022-09-17T06:54:40.306Z,76165.41
2022-09-17T06:57:07.051Z,76165.41
2022-09-17T06:59:33.563Z,76157.44
2022-09-17T07:02:00.091Z,76153.47
2022-09-17T07:04:26.805Z,76143.53
2022-09-17T07:06:53.332Z,76157.44
2022-09-17T07:09:19.814Z,76121.69
2022-09-17T07:11:46.301Z,76115.72
2022-09-17T07:14:12.873Z,76101.81
2022-09-17T07:16:39.355Z,76127.66
2022-09-17T07:19:06.845Z,76121.69
2022-09-17T07:21:33.514Z,76121.69
2022-09-17T07:24:00.325Z,76111.75
2022-09-17T07:26:26.871Z,76127.66
2022-09-17T07:28:53.319Z,76123.66
2022-09-17T07:31:19.928Z,76139.56
2022-09-17T07:33:46.650Z,76113.75
2022-09-17T07:36:17.795Z,76117.72
2022-09-17T07:38:44.434Z,76121.69
2022-09-17T07:41:13.597Z,76137.59
2022-09-17T07:43:41.036Z,76135.59
2022-09-17T07:46:10.420Z,76129.63
2022-09-17T07:48:36.922Z,76119.69
2022-09-17T07:51:03.413Z,76129.63
2022-09-17T07:53:30.080Z,76107.78
2022-09-17T07:55:58.686Z,76109.75
2022-09-17T07:58:30.675Z,76076.00
2022-09-17T08:01:16.843Z,76060.09
2022-09-17T08:03:48.174Z,76050.16
2022-09-17T08:06:17.622Z,76066.06
2022-09-17T08:08:44.149Z,76024.31
2022-09-17T08:11:38.023Z,76044.19
2022-09-17T08:14:06.213Z,76034.25
2022-09-17T08:16:32.783Z,76018.38
2022-09-17T08:18:59.308Z,76024.31
2022-09-17T08:21:26.102Z,76004.47
2022-09-17T08:23:52.904Z,76010.41
2022-09-17T08:26:22.895Z,76026.31
2022-09-17T08:28:52.220Z,76024.31
2022-09-17T08:31:20.106Z,76018.38
2022-09-17T08:33:53.093Z,76004.47
2022-09-17T08:36:19.951Z,75992.53
2022-09-17T08:38:46.726Z,75978.63
2022-09-17T08:41:55.199Z,76000.47
2022-09-17T08:44:24.485Z,75996.50
2022-09-17T08:46:52.953Z,75982.59
2022-09-17T08:49:40.508Z,76016.38
2022-09-17T08:52:10.113Z,76010.41
2022-09-17T08:55:06.563Z,76004.47
2022-09-17T08:57:59.697Z,76002.47
2022-09-17T09:00:32.395Z,76002.47
2022-09-17T09:03:17.131Z,75994.53
2022-09-17T09:05:45.792Z,75990.56
2022-09-17T09:08:21.483Z,75974.66
2022-09-17T09:10:55.935Z,75982.59
2022-09-17T09:13:26.903Z,76000.47
2022-09-17T09:16:02.425Z,76008.44
2022-09-17T09:18:40.366Z,76032.28
2022-09-17T09:21:09.766Z,76028.31
2022-09-17T09:23:58.714Z,76006.44
2022-09-17T09:26:45.131Z,75946.84
2022-09-17T09:29:20.763Z,75946.84
2022-09-17T09:31:58.922Z,75986.56
2022-09-17T09:34:28.252Z,75982.59
2022-09-17T09:37:10.210Z,75972.66
2022-09-17T09:39:45.131Z,75978.63
2022-09-17T09:42:32.332Z,75952.81
2022-09-17T09:45:05.139Z,75932.94
2022-09-17T09:47:55.438Z,75909.09
2022-09-17T09:51:04.741Z,75936.91
2022-09-17T09:53:45.869Z,75958.75
2022-09-17T09:56:44.831Z,76006.44
2022-09-17T09:59:13.208Z,75982.59
2022-09-17T10:01:42.763Z,75976.66
2022-09-17T10:04:22.028Z,75907.09
2022-09-17T10:06:52.476Z,75883.25
2022-09-17T10:09:22.172Z,75901.16
2022-09-17T10:12:00.114Z,75895.19
2022-09-17T10:14:29.716Z,75915.06
2022-09-17T10:17:16.558Z,75928.97
2022-09-17T10:19:44.358Z,75919.03
2022-09-17T10:22:24.742Z,75915.06
2022-09-17T10:24:54.192Z,75911.06
2022-09-17T10:27:22.744Z,75903.13
2022-09-17T10:29:55.816Z,75913.06
2022-09-17T10:32:23.223Z,75932.94
2022-09-17T10:35:04.566Z,75944.84
2022-09-17T10:37:50.483Z,75990.56
2022-09-17T10:40:20.178Z,76038.22
2022-09-17T10:42:46.849Z,76058.09
2022-09-17T10:45:28.623Z,76042.22
2022-09-17T10:47:57.149Z,76030.28
2022-09-17T10:50:29.907Z,76036.25
2022-09-17T10:53:05.991Z,76064.06
2022-09-17T10:55:52.142Z,76062.06
2022-09-17T10:58:39.187Z,76034.25
2022-09-17T11:01:31.169Z,75988.56
2022-09-17T11:04:31.488Z,75938.91
2022-09-17T11:07:29.935Z,75907.09
2022-09-17T11:10:12.592Z,75859.41
2022-09-17T11:12:55.752Z,75875.31
2022-09-17T11:15:40.516Z,75845.50
2022-09-17T11:18:22.191Z,75805.78
2022-09-17T11:21:12.955Z,75785.91
2022-09-17T11:24:04.130Z,75825.66
2022-09-17T11:26:45.598Z,75879.28
2022-09-17T11:29:43.051Z,75911.06
2022-09-17T11:32:27.905Z,75944.84
2022-09-17T11:35:08.291Z,75950.81
2022-09-17T11:37:49.148Z,75901.16
2022-09-17T11:40:15.908Z,75863.41
2022-09-17T11:42:59.491Z,75843.53
2022-09-17T11:45:45.925Z,75764.06
2022-09-17T11:48:50.551Z,75718.38
2022-09-17T11:51:47.892Z,75764.06
2022-09-17T11:54:32.362Z,75775.97
2022-09-17T11:57:13.004Z,75825.66
2022-09-17T11:59:54.363Z,75851.47
2022-09-17T12:02:28.588Z,75903.13
2022-09-17T12:05:26.344Z,75911.06
2022-09-17T12:08:30.087Z,75907.09
2022-09-17T12:11:14.899Z,75911.06
2022-09-17T12:14:01.042Z,75919.03
2022-09-17T12:16:46.435Z,75895.19
2022-09-17T12:38:13.708Z,75809.75
2022-09-17T12:41:15.879Z,75847.50
2022-09-17T13:06:40.103Z,75889.22
2022-09-17T13:09:38.883Z,75905.13
2022-09-17T13:12:25.263Z,75903.13
2022-09-17T13:15:18.272Z,75883.25
2022-09-17T13:17:46.671Z,75837.56
2022-09-17T13:20:15.895Z,75815.72
2022-09-17T13:22:51.393Z,75791.88
2022-09-17T13:25:20.403Z,75827.63
2022-09-17T13:27:49.376Z,75803.78
2022-09-17T13:30:18.148Z,75805.78
2022-09-17T13:32:46.828Z,75775.97
2022-09-17T13:35:13.288Z,75762.06
2022-09-17T13:37:56.554Z,75783.94
2022-09-17T13:40:25.024Z,75787.91
2022-09-17T13:42:57.658Z,75799.81
2022-09-17T13:45:25.852Z,75837.56
2022-09-17T13:48:21.640Z,75865.38
2022-09-17T13:50:48.231Z,75857.44
2022-09-17T13:53:14.686Z,75833.59
2022-09-17T13:55:54.902Z,75835.59
2022-09-17T13:58:21.330Z,75863.41
2022-09-17T14:00:57.173Z,75873.31
2022-09-17T14:03:49.924Z,75867.38
2022-09-17T14:06:18.847Z,75851.47
2022-09-17T14:08:45.524Z,75817.69
2022-09-17T14:11:24.433Z,75801.81
2022-09-17T14:13:50.979Z,75793.84
2022-09-17T14:16:35.721Z,75774.00
2022-09-17T14:19:51.097Z,75774.00
2022-09-17T14:22:25.136Z,75768.03
2022-09-17T14:24:54.310Z,75772.00
2022-09-17T14:27:58.527Z,75774.00
2022-09-17T14:30:33.101Z,75764.06
2022-09-17T14:33:14.458Z,75754.13
2022-09-17T14:35:46.350Z,75732.28
2022-09-17T14:38:32.106Z,75722.34
2022-09-17T14:41:17.931Z,75704.47
2022-09-17T14:43:52.094Z,75686.56
2022-09-17T14:46:25.917Z,75672.66
2022-09-17T14:48:52.475Z,75646.84
2022-09-17T14:51:18.979Z,75545.53
2022-09-17T14:53:47.321Z,75350.84
2022-09-17T14:56:22.443Z,75245.56
2022-09-17T14:58:52.663Z,75350.84
2022-09-17T15:01:27.788Z,75575.31
2022-09-17T15:04:20.344Z,75700.47
2022-09-17T15:06:47.419Z,75664.72
2022-09-17T15:09:41.945Z,75698.50
2022-09-17T15:12:09.029Z,75819.69
2022-09-17T15:14:39.881Z,75873.31
2022-09-17T15:17:07.246Z,75938.91
2022-09-17T15:19:38.568Z,75988.56
2022-09-17T15:22:50.296Z,76016.38
2022-09-17T15:25:42.394Z,75998.50
2022-09-17T15:28:37.320Z,75845.50
2022-09-17T15:31:06.285Z,75837.56
2022-09-17T15:33:36.117Z,75636.91
2022-09-17T15:36:09.476Z,75595.19
2022-09-17T15:38:39.163Z,75718.38
2022-09-17T15:41:24.724Z,75750.16
2022-09-17T15:43:51.585Z,75801.81
2022-09-17T15:46:30.832Z,75829.63
2022-09-17T15:49:04.636Z,75873.31
2022-09-17T15:51:35.967Z,75883.25
2022-09-17T15:54:05.899Z,75871.34
2022-09-17T15:56:35.618Z,75809.75
2022-09-17T15:59:05.719Z,75825.66
2022-09-17T16:01:32.601Z,75797.84
2022-09-17T16:03:59.309Z,75837.56
2022-09-17T16:06:31.096Z,75901.16
2022-09-17T16:09:03.253Z,75881.28
2022-09-17T16:11:32.965Z,75919.03
2022-09-17T16:14:00.958Z,75966.72
2022-09-17T16:16:34.043Z,76022.34
2022-09-17T16:19:00.803Z,76050.16
2022-09-17T16:21:32.130Z,76074.00
2022-09-17T16:23:58.689Z,76105.78
2022-09-17T16:26:30.289Z,76129.63
2022-09-17T16:29:04.619Z,76155.47
2022-09-17T16:31:31.905Z,76177.31
2022-09-17T16:34:01.651Z,76181.28
2022-09-17T16:36:31.115Z,76183.28
2022-09-17T16:38:58.523Z,76205.13
2022-09-17T16:41:25.137Z,76213.09
2022-09-17T16:43:51.651Z,76238.91
2022-09-17T16:46:18.194Z,76236.94
2022-09-17T16:48:46.416Z,76244.88
2022-09-17T16:51:14.268Z,76264.75
2022-09-17T16:53:41.107Z,76264.75
2022-09-17T16:56:12.097Z,76270.72
2022-09-17T16:58:38.964Z,76282.63
2022-09-17T17:01:09.356Z,76282.63
2022-09-17T17:03:35.954Z,76298.53
2022-09-17T17:06:03.435Z,76308.47
2022-09-17T17:08:34.056Z,76306.47
2022-09-17T17:11:01.847Z,76314.41
2022-09-17T17:13:28.904Z,76316.41
2022-09-17T17:15:55.433Z,76322.38
2022-09-17T17:18:22.967Z,76332.31
2022-09-17T17:20:49.511Z,76322.38
2022-09-17T17:23:16.654Z,76294.56
2022-09-17T17:25:43.140Z,76256.78
2022-09-17T17:28:10.104Z,76258.78
2022-09-17T17:30:37.597Z,76280.66
2022-09-17T17:33:04.243Z,76294.56
2022-09-17T17:35:30.928Z,76300.50
2022-09-17T17:37:57.412Z,76312.44
2022-09-17T17:40:24.211Z,76314.41
2022-09-17T17:42:54.523Z,76318.41
2022-09-17T17:45:21.627Z,76312.44
2022-09-17T17:47:56.154Z,76320.38
2022-09-17T17:50:22.788Z,76328.34
2022-09-17T17:52:49.742Z,76348.19
2022-09-17T17:55:16.773Z,76350.19
2022-09-17T17:57:43.653Z,76358.13
2022-09-17T18:00:13.304Z,76366.09
2022-09-17T18:02:40.552Z,76360.13
2022-09-17T18:05:07.451Z,76352.19
2022-09-17T18:07:34.156Z,76366.09
2022-09-17T18:10:00.832Z,76362.09
2022-09-17T18:12:27.553Z,76368.06
2022-09-17T18:14:54.213Z,76368.06
2022-09-17T18:17:38.114Z,76374.03
2022-09-17T18:20:05.315Z,76372.03
2022-09-17T18:22:31.889Z,76381.97
2022-09-17T18:24:58.523Z,76393.91
2022-09-17T18:27:25.056Z,76393.91
2022-09-17T18:29:51.633Z,76381.97
2022-09-17T18:32:18.076Z,76372.03
2022-09-17T18:34:44.534Z,76376.03
2022-09-17T18:37:11.061Z,76376.03
2022-09-17T18:42:24.028Z,76389.94
2022-09-17T18:44:50.697Z,76387.94
2022-09-17T18:47:17.695Z,76393.91
2022-09-17T18:49:44.138Z,76376.03
2022-09-17T18:52:10.598Z,76383.97
2022-09-17T18:54:37.157Z,76395.91
2022-09-17T18:57:03.660Z,76399.88
2022-09-17T18:59:30.186Z,76423.72
2022-09-17T19:01:56.779Z,76439.59
2022-09-17T19:04:23.337Z,76421.72
2022-09-17T19:06:50.265Z,76443.59
2022-09-17T19:09:16.904Z,76441.59
2022-09-17T19:11:43.476Z,76443.59
2022-09-17T19:14:10.783Z,76475.38
2022-09-17T19:16:37.400Z,76477.38
2022-09-17T19:19:04.028Z,76501.22
2022-09-17T19:21:30.626Z,76509.16
2022-09-17T19:23:57.234Z,76525.06
2022-09-17T19:26:26.682Z,76536.97
2022-09-17T19:28:55.023Z,76538.97
2022-09-17T19:31:22.335Z,76542.94
2022-09-17T19:33:51.586Z,76531.00
2022-09-17T19:36:20.387Z,76513.13
2022-09-17T19:38:47.217Z,76505.19
2022-09-17T19:41:18.985Z,76495.25
2022-09-17T19:43:46.579Z,76471.41
2022-09-17T19:46:16.000Z,76495.25
2022-09-17T19:48:47.644Z,76471.41
2022-09-17T19:51:15.143Z,76451.53
2022-09-17T19:53:41.860Z,76455.50
2022-09-17T19:56:12.937Z,76457.50
2022-09-17T19:58:40.469Z,76463.44
2022-09-17T20:01:07.408Z,76475.38
2022-09-17T20:03:34.390Z,76485.31
2022-09-17T20:06:03.164Z,76495.25
2022-09-17T20:08:30.750Z,76501.22
2022-09-17T20:11:04.823Z,76503.19
2022-09-17T20:13:31.628Z,76491.28
2022-09-17T20:16:10.846Z,76503.19
2022-09-17T20:18:39.057Z,76493.25
2022-09-17T20:21:20.178Z,76491.28
2022-09-17T20:23:47.078Z,76497.22
2022-09-17T20:26:15.094Z,76479.34
2022-09-17T20:28:43.686Z,76467.44
2022-09-17T20:31:15.974Z,76491.28
2022-09-17T20:33:46.115Z,76479.34
2022-09-17T20:36:18.317Z,76475.38
2022-09-17T20:41:32.632Z,76491.28
2022-09-17T20:44:00.240Z,76497.22
2022-09-17T20:46:29.790Z,76497.22
2022-09-17T20:48:57.547Z,76503.19
2022-09-17T20:51:27.267Z,76497.22
2022-09-17T20:53:53.811Z,76489.28
2022-09-17T20:56:26.414Z,76497.22
2022-09-17T20:59:12.412Z,76485.31
2022-09-17T21:01:39.778Z,76487.28
2022-09-17T21:04:07.664Z,76493.25
2022-09-17T21:06:37.569Z,76473.38
2022-09-17T21:09:06.183Z,76493.25
2022-09-17T21:11:33.966Z,76475.38
2022-09-17T21:14:01.039Z,76477.38
2022-09-17T21:16:28.702Z,76491.28
2022-09-17T21:19:01.533Z,76493.25
2022-09-17T21:21:28.528Z,76473.38
2022-09-17T21:23:55.323Z,76485.31
2022-09-17T21:26:23.780Z,76469.41
2022-09-17T21:28:52.283Z,76471.41
2022-09-17T21:31:21.581Z,76457.50
2022-09-17T21:33:53.294Z,76465.44
2022-09-17T21:36:22.476Z,76465.44
2022-09-17T21:39:00.123Z,76457.50
2022-09-17T21:41:27.356Z,76473.38
2022-09-17T21:43:54.336Z,76459.47
2022-09-17T21:46:23.447Z,76465.44
2022-09-17T21:48:52.345Z,76445.56
2022-09-17T21:51:24.887Z,76467.44
2022-09-17T21:53:52.999Z,76451.53
2022-09-17T21:56:20.913Z,76459.47
2022-09-17T21:58:51.648Z,76447.56
2022-09-17T22:01:21.429Z,76447.56
2022-09-17T22:03:50.854Z,76439.59
2022-09-17T22:06:23.018Z,76431.66
2022-09-17T22:08:51.496Z,76449.53
2022-09-17T22:11:21.400Z,76463.44
2022-09-17T22:14:08.913Z,76463.44
2022-09-17T22:16:37.951Z,76463.44
2022-09-17T22:19:05.469Z,76449.53
2022-09-17T22:21:34.554Z,76435.63
2022-09-17T22:24:02.827Z,76443.59
2022-09-17T22:26:32.127Z,76447.56
2022-09-17T22:29:08.142Z,76451.53
2022-09-17T22:31:35.003Z,76435.63
2022-09-17T22:34:02.403Z,76431.66
2022-09-17T22:36:29.748Z,76441.59
2022-09-17T22:38:58.575Z,76439.59
2022-09-17T22:41:30.742Z,76425.69
2022-09-17T22:44:01.488Z,76431.66
2022-09-17T22:46:33.096Z,76437.63
2022-09-17T22:49:00.265Z,76429.66
2022-09-17T22:51:28.760Z,76431.66
2022-09-17T22:53:55.999Z,76415.75
2022-09-17T22:56:25.857Z,76419.72
2022-09-17T22:58:52.776Z,76421.72
2022-09-17T23:01:25.222Z,76421.72
2022-09-17T23:03:53.433Z,76413.78
2022-09-17T23:06:23.804Z,76425.69
2022-09-17T23:08:51.023Z,76429.66
2022-09-17T23:11:26.742Z,76433.66
2022-09-17T23:13:57.368Z,76429.66
2022-09-17T23:16:24.731Z,76423.72
2022-09-17T23:18:51.292Z,76417.75
2022-09-17T23:21:19.144Z,76407.81
2022-09-17T23:23:48.395Z,76403.84
2022-09-17T23:26:26.701Z,76401.84
2022-09-17T23:28:53.856Z,76393.91
2022-09-17T23:31:23.175Z,76387.94
2022-09-17T23:33:50.663Z,76368.06
2022-09-17T23:36:20.008Z,76380.00
2022-09-17T23:38:47.782Z,76381.97
2022-09-17T23:41:15.929Z,76380.00
2022-09-17T23:43:44.405Z,76381.97
2022-09-17T23:46:11.430Z,76370.06
2022-09-17T23:48:38.274Z,76366.09
2022-09-17T23:51:05.556Z,76391.91
2022-09-17T23:53:33.401Z,76397.88
2022-09-17T23:56:03.308Z,76397.88
2022-09-17T23:58:33.512Z,76395.91
